createdAt,value
2018-08-03T00:02:16.782Z,97432.65
2018-08-03T00:07:11.471Z,97438.99
2018-08-03T00:12:06.181Z,97434.03
2018-08-03T00:17:00.804Z,97429.75
2018-08-03T00:21:55.919Z,97416.59
2018-08-03T00:26:50.555Z,97421.98
2018-08-03T00:31:45.139Z,97419.27
2018-08-03T00:36:39.762Z,97409.98
2018-08-03T00:41:34.372Z,97413.47
2018-08-03T00:46:29.010Z,97407.88
2018-08-03T00:51:23.615Z,97412.45
2018-08-03T00:56:18.291Z,97415.23
2018-08-03T01:01:12.967Z,97418.42
2018-08-03T01:06:08.434Z,97423.55
2018-08-03T01:11:03.355Z,97425.17
2018-08-03T01:15:57.969Z,97418.77
2018-08-03T01:20:52.611Z,97422.43
2018-08-03T01:25:47.184Z,97425.93
2018-08-03T01:30:42.775Z,97432.80
2018-08-03T01:35:37.418Z,97427.54
2018-08-03T01:40:32.119Z,97425.02
2018-08-03T01:45:26.787Z,97419.87
2018-08-03T01:50:21.431Z,97421.15
2018-08-03T01:55:16.522Z,97415.61
2018-08-03T02:00:11.211Z,97418.78
2018-08-03T02:05:05.892Z,97410.08
2018-08-03T02:10:00.525Z,97404.94
2018-08-03T02:14:55.274Z,97396.19
2018-08-03T02:19:49.904Z,97403.61
2018-08-03T02:24:44.542Z,97392.94
2018-08-03T02:29:39.221Z,97399.54
2018-08-03T02:34:33.890Z,97399.08
2018-08-03T02:39:28.550Z,97389.77
2018-08-03T02:44:23.111Z,97382.52
2018-08-03T02:49:17.726Z,97382.77
2018-08-03T02:54:12.322Z,97387.63
2018-08-03T02:59:06.947Z,97385.09
2018-08-03T03:04:01.539Z,97386.83
2018-08-03T03:08:56.109Z,97391.05
2018-08-03T03:13:51.001Z,97393.11
2018-08-03T03:18:45.588Z,97387.98
2018-08-03T03:23:40.198Z,97400.78
2018-08-03T03:28:34.803Z,97402.25
2018-08-03T03:33:29.390Z,97410.83
2018-08-03T03:38:24.012Z,97405.86
2018-08-03T03:43:18.719Z,97403.52
2018-08-03T03:48:13.797Z,97395.07
2018-08-03T03:53:08.353Z,97396.16
2018-08-03T03:58:02.947Z,97402.52
2018-08-03T04:02:57.548Z,97396.86
2018-08-03T04:07:52.095Z,97400.08
2018-08-03T04:12:46.671Z,97405.05
2018-08-03T04:17:41.296Z,97405.12
2018-08-03T04:22:35.964Z,97402.73
2018-08-03T04:27:30.528Z,97398.90
2018-08-03T04:32:25.161Z,97403.73
2018-08-03T04:37:19.829Z,97407.39
2018-08-03T04:42:15.252Z,97415.72
2018-08-03T04:47:09.759Z,97415.33
2018-08-03T04:52:04.441Z,97423.38
2018-08-03T04:56:59.011Z,97415.39
2018-08-03T05:01:53.684Z,97418.09
2018-08-03T05:06:48.401Z,97409.44
2018-08-03T05:11:43.957Z,97414.16
2018-08-03T05:16:38.860Z,97406.70
2018-08-03T05:21:33.496Z,97412.23
2018-08-03T05:26:27.922Z,97413.55
2018-08-03T05:31:22.592Z,97415.67
2018-08-03T05:36:17.749Z,97416.28
2018-08-03T05:41:12.375Z,97411.86
2018-08-03T05:46:07.346Z,97411.18
2018-08-03T05:51:01.882Z,97412.02
2018-08-03T05:55:56.518Z,97411.55
2018-08-03T06:00:51.101Z,97411.70
2018-08-03T06:05:45.785Z,97414.65
2018-08-03T06:10:40.453Z,97410.96
2018-08-03T06:15:35.063Z,97410.91
2018-08-03T06:20:29.687Z,97410.40
2018-08-03T06:25:24.265Z,97408.56
2018-08-03T06:30:18.922Z,97410.63
2018-08-03T06:35:13.561Z,97414.32
2018-08-03T06:40:08.253Z,97416.85
2018-08-03T06:45:02.943Z,97417.86
2018-08-03T06:49:57.539Z,97412.09
2018-08-03T06:54:52.201Z,97409.77
2018-08-03T06:59:46.808Z,97407.25
2018-08-03T07:04:41.472Z,97415.36
2018-08-03T07:09:36.068Z,97406.40
2018-08-03T07:14:30.728Z,97413.14
2018-08-03T07:19:25.278Z,97408.38
2018-08-03T07:24:19.956Z,97405.93
2018-08-03T07:29:14.552Z,97402.95
2018-08-03T07:34:09.214Z,97404.33
2018-08-03T07:39:03.996Z,97402.81
2018-08-03T07:43:58.636Z,97403.08
2018-08-03T07:48:53.684Z,97405.07
2018-08-03T07:53:48.323Z,97401.61
2018-08-03T07:58:42.899Z,97403.20
2018-08-03T08:04:05.154Z,97399.70
2018-08-03T08:08:59.893Z,97396.48
2018-08-03T08:13:54.578Z,97396.30
2018-08-03T08:18:49.164Z,97388.70
2018-08-03T08:23:43.754Z,97391.20
2018-08-03T08:28:38.403Z,97390.65
2018-08-03T08:33:33.498Z,97389.70
2018-08-03T08:38:28.091Z,97385.30
2018-08-03T08:43:22.719Z,97386.49
2018-08-03T08:48:17.331Z,97388.55
2018-08-03T08:53:11.984Z,97379.45
2018-08-03T08:58:06.639Z,97378.14
2018-08-03T09:03:01.104Z,97369.78
2018-08-03T09:07:55.884Z,97365.91
2018-08-03T09:12:50.421Z,97368.38
2018-08-03T09:17:45.014Z,97357.66
2018-08-03T09:22:39.605Z,97356.03
2018-08-03T09:27:34.176Z,97345.63
2018-08-03T09:32:28.846Z,97343.08
2018-08-03T09:37:23.539Z,97329.10
2018-08-03T09:42:18.186Z,97328.49
2018-08-03T09:47:13.575Z,97319.53
2018-08-03T09:52:08.485Z,97317.94
2018-08-03T09:57:04.198Z,97313.88
2018-08-03T10:01:59.035Z,97304.48
2018-08-03T10:06:53.658Z,97303.48
2018-08-03T10:11:48.241Z,97302.17
2018-08-03T10:16:42.868Z,97290.24
2018-08-03T10:21:37.548Z,97288.35
2018-08-03T10:26:32.305Z,97280.18
2018-08-03T10:31:26.968Z,97281.14
2018-08-03T10:36:21.580Z,97271.52
2018-08-03T10:41:16.168Z,97279.28
2018-08-03T10:46:11.005Z,97269.85
2018-08-03T10:51:06.097Z,97267.27
2018-08-03T10:56:00.721Z,97263.41
2018-08-03T11:00:55.357Z,97254.03
2018-08-03T11:05:49.979Z,97243.48
2018-08-03T11:10:44.578Z,97239.01
2018-08-03T11:15:39.207Z,97232.81
2018-08-03T11:20:33.792Z,97235.20
2018-08-03T11:25:28.479Z,97231.53
2018-08-03T11:30:23.098Z,97222.91
2018-08-03T11:35:17.749Z,97219.48
2018-08-03T11:40:12.373Z,97213.22
2018-08-03T11:45:09.040Z,97212.64
2018-08-03T11:50:03.983Z,97208.81
2018-08-03T11:54:58.658Z,97208.18
2018-08-03T11:59:53.251Z,97206.09
2018-08-03T12:04:47.846Z,97199.66
2018-08-03T12:09:42.489Z,97192.30
2018-08-03T12:14:36.851Z,97179.83
2018-08-03T12:19:31.439Z,97186.86
2018-08-03T12:24:26.073Z,97173.72
2018-08-03T12:29:20.692Z,97176.66
2018-08-03T12:34:15.315Z,97166.41
2018-08-03T12:51:59.682Z,97174.45
2018-08-03T12:56:54.597Z,97166.63
2018-08-03T13:01:49.195Z,97164.27
2018-08-03T13:06:43.856Z,97156.45
2018-08-03T13:11:38.471Z,97162.15
2018-08-03T13:16:33.153Z,97152.23
2018-08-03T13:21:37.871Z,97149.02
2018-08-03T13:26:32.618Z,97136.70
2018-08-03T13:31:28.123Z,97139.27
2018-08-03T13:36:23.960Z,97141.08
2018-08-03T13:41:18.581Z,97131.65
2018-08-03T13:46:13.384Z,97127.95
2018-08-03T13:51:08.023Z,97126.91
2018-08-03T13:56:02.671Z,97123.75
2018-08-03T14:01:14.209Z,97128.58
2018-08-03T14:06:08.799Z,97121.27
2018-08-03T14:11:03.400Z,97119.68
2018-08-03T14:15:58.084Z,97110.27
2018-08-03T14:20:52.796Z,97107.86
2018-08-03T14:25:47.443Z,97101.79
2018-08-03T14:30:42.049Z,97092.34
2018-08-03T14:35:36.700Z,97094.75
2018-08-03T14:40:31.327Z,97093.20
2018-08-03T14:45:25.974Z,97097.16
2018-08-03T14:50:20.683Z,97093.62
2018-08-03T14:55:15.260Z,97092.61
2018-08-03T15:00:09.958Z,97088.08
2018-08-03T15:05:04.671Z,97081.18
2018-08-03T15:10:00.180Z,97087.78
2018-08-03T15:14:54.819Z,97073.66
2018-08-03T15:19:49.463Z,97073.84
2018-08-03T15:24:44.100Z,97072.80
2018-08-03T15:29:39.331Z,97070.35
2018-08-03T15:34:33.984Z,97057.09
2018-08-03T15:39:28.665Z,97052.59
2018-08-03T15:44:23.241Z,97051.96
2018-08-03T15:49:17.896Z,97048.39
2018-08-03T15:54:12.485Z,97048.70
2018-08-03T15:59:08.287Z,97046.80
2018-08-03T16:04:02.959Z,97044.70
2018-08-03T16:08:57.660Z,97030.94
2018-08-03T16:13:52.288Z,97022.63
2018-08-03T16:18:46.903Z,97020.73
2018-08-03T16:23:42.593Z,97022.36
2018-08-03T16:28:37.197Z,97021.37
2018-08-03T16:33:31.815Z,97016.21
2018-08-03T16:38:26.400Z,97025.45
2018-08-03T16:43:21.103Z,97026.61
2018-08-03T16:48:15.832Z,97029.59
2018-08-03T16:53:10.482Z,97021.02
2018-08-03T16:58:05.127Z,97025.28
2018-08-03T17:02:59.775Z,97031.17
2018-08-03T17:07:54.369Z,97031.43
2018-08-03T17:12:48.948Z,97031.61
2018-08-03T17:17:43.551Z,97038.02
2018-08-03T17:22:38.397Z,97042.55
2018-08-03T17:27:33.036Z,97044.38
2018-08-03T17:32:27.663Z,97048.08
2018-08-03T17:37:22.291Z,97051.13
2018-08-03T17:42:17.381Z,97052.77
2018-08-03T17:47:12.000Z,97048.30
2018-08-03T17:52:06.699Z,97054.56
2018-08-03T17:57:01.451Z,97058.56
2018-08-03T18:01:56.572Z,97056.98
2018-08-03T18:06:51.290Z,97062.30
2018-08-03T18:11:45.999Z,97062.73
2018-08-03T18:16:40.897Z,97066.09
2018-08-03T18:21:36.822Z,97071.97
2018-08-03T18:26:32.007Z,97074.02
2018-08-03T18:31:26.598Z,97076.69
2018-08-03T18:36:21.308Z,97078.89
2018-08-03T18:41:16.816Z,97082.44
2018-08-03T18:46:11.837Z,97082.86
2018-08-03T18:51:07.084Z,97089.27
2018-08-03T18:56:01.796Z,97088.70
2018-08-03T19:00:56.575Z,97094.58
2018-08-03T19:05:52.171Z,97095.56
2018-08-03T19:10:46.790Z,97104.87
2018-08-03T19:15:41.420Z,97104.27
2018-08-03T19:20:36.122Z,97107.80
2018-08-03T19:25:31.437Z,97115.95
2018-08-03T19:30:26.307Z,97120.17
2018-08-03T19:35:21.112Z,97121.59
2018-08-03T19:40:15.885Z,97124.34
2018-08-03T19:45:10.850Z,97122.34
2018-08-03T19:50:06.197Z,97124.09
2018-08-03T19:55:01.212Z,97127.83
2018-08-03T19:59:56.910Z,97129.64
2018-08-03T20:04:51.599Z,97133.25
2018-08-03T20:09:46.268Z,97127.34
2018-08-03T20:14:41.940Z,97132.22
2018-08-03T20:19:36.604Z,97139.16
2018-08-03T20:24:31.264Z,97140.80
2018-08-03T20:29:25.845Z,97140.36
2018-08-03T20:34:20.436Z,97141.50
2018-08-03T20:39:15.095Z,97144.50
2018-08-03T20:44:09.699Z,97141.09
2018-08-03T20:49:04.347Z,97144.42
2018-08-03T20:53:59.221Z,97145.31
2018-08-03T20:58:53.905Z,97148.16
2018-08-03T21:03:48.578Z,97152.16
2018-08-03T21:08:44.207Z,97152.19
2018-08-03T21:13:38.849Z,97147.05
2018-08-03T21:18:33.675Z,97153.20
2018-08-03T21:23:28.376Z,97159.50
2018-08-03T21:28:22.964Z,97165.36
2018-08-03T21:33:17.587Z,97159.98
2018-08-03T21:38:12.158Z,97164.52
2018-08-03T21:43:06.796Z,97165.57
2018-08-03T21:48:01.413Z,97165.47
2018-08-03T21:52:56.034Z,97168.34
2018-08-03T21:57:50.692Z,97163.94
2018-08-03T22:02:44.992Z,97167.53
2018-08-03T22:07:39.687Z,97157.36
2018-08-03T22:12:34.314Z,97151.61
2018-08-03T22:17:28.934Z,97158.63
2018-08-03T22:22:23.649Z,97164.03
2018-08-03T22:27:18.263Z,97160.00
2018-08-03T22:32:12.912Z,97160.14
2018-08-03T22:41:56.663Z,97164.99
2018-08-03T22:46:51.332Z,97157.47
2018-08-03T22:51:46.618Z,97156.44
2018-08-03T22:56:41.217Z,97147.31
2018-08-03T23:01:35.935Z,97151.57
2018-08-03T23:06:30.620Z,97149.52
2018-08-03T23:11:25.247Z,97150.16
2018-08-03T23:16:19.908Z,97155.55
2018-08-03T23:21:14.544Z,97146.23
2018-08-03T23:26:09.152Z,97148.63
2018-08-03T23:31:03.824Z,97154.61
2018-08-03T23:35:58.480Z,97150.37
2018-08-03T23:40:53.142Z,97134.41
2018-08-03T23:45:47.813Z,97136.28
2018-08-03T23:50:42.495Z,97145.06
2018-08-03T23:55:37.137Z,97140.21
